sensor_id;sensor_type;location;lat;lon;timestamp;temperature;humidity
56374;DHT22;58212;47.034;7.376;2023-02-28T00:00:13;0.00;99.90
56374;DHT22;58212;47.034;7.376;2023-02-28T00:02:42;-0.20;99.90
56374;DHT22;58212;47.034;7.376;2023-02-28T00:05:11;0.00;99.90
56374;DHT22;58212;47.034;7.376;2023-02-28T00:07:40;-0.10;99.90
56374;DHT22;58212;47.034;7.376;2023-02-28T00:10:09;-0.10;99.90
56374;DHT22;58212;47.034;7.376;2023-02-28T00:12:38;0.10;99.90
56374;DHT22;58212;47.034;7.376;2023-02-28T00:15:06;0.30;99.90
56374;DHT22;58212;47.034;7.376;2023-02-28T00:17:36;0.10;99.90
56374;DHT22;58212;47.034;7.376;2023-02-28T00:20:04;0.20;99.90
56374;DHT22;58212;47.034;7.376;2023-02-28T00:22:34;0.00;99.90
56374;DHT22;58212;47.034;7.376;2023-02-28T00:25:03;0.40;99.90
56374;DHT22;58212;47.034;7.376;2023-02-28T00:27:57;0.10;99.90
56374;DHT22;58212;47.034;7.376;2023-02-28T00:30:25;-0.10;99.90
56374;DHT22;58212;47.034;7.376;2023-02-28T00:32:51;-0.20;99.90
56374;DHT22;58212;47.034;7.376;2023-02-28T00:35:20;-0.10;99.90
56374;DHT22;58212;47.034;7.376;2023-02-28T00:37:48;0.10;99.90
56374;DHT22;58212;47.034;7.376;2023-02-28T00:40:16;0.10;99.90
56374;DHT22;58212;47.034;7.376;2023-02-28T00:42:43;-0.10;99.90
56374;DHT22;58212;47.034;7.376;2023-02-28T00:45:10;0.00;99.90
56374;DHT22;58212;47.034;7.376;2023-02-28T00:47:38;0.20;99.90
56374;DHT22;58212;47.034;7.376;2023-02-28T00:50:06;0.10;99.90
56374;DHT22;58212;47.034;7.376;2023-02-28T00:52:36;0.10;99.90
56374;DHT22;58212;47.034;7.376;2023-02-28T00:55:04;0.00;99.90
56374;DHT22;58212;47.034;7.376;2023-02-28T00:57:34;0.30;99.90
56374;DHT22;58212;47.034;7.376;2023-02-28T01:00:01;-0.20;99.90
56374;DHT22;58212;47.034;7.376;2023-02-28T01:02:28;-0.20;99.90
56374;DHT22;58212;47.034;7.376;2023-02-28T01:04:57;-0.20;99.90
56374;DHT22;58212;47.034;7.376;2023-02-28T01:07:25;-0.30;99.90
56374;DHT22;58212;47.034;7.376;2023-02-28T01:09:53;-0.30;99.90
56374;DHT22;58212;47.034;7.376;2023-02-28T01:12:20;-0.20;99.90
56374;DHT22;58212;47.034;7.376;2023-02-28T01:14:52;-0.10;99.90
56374;DHT22;58212;47.034;7.376;2023-02-28T01:17:44;-0.30;99.90
56374;DHT22;58212;47.034;7.376;2023-02-28T01:20:11;0.00;99.90
56374;DHT22;58212;47.034;7.376;2023-02-28T01:22:40;0.20;99.90
56374;DHT22;58212;47.034;7.376;2023-02-28T01:25:08;0.00;99.90
56374;DHT22;58212;47.034;7.376;2023-02-28T01:27:36;-0.10;99.90
56374;DHT22;58212;47.034;7.376;2023-02-28T01:30:08;0.00;99.90
56374;DHT22;58212;47.034;7.376;2023-02-28T01:32:35;0.10;99.90
56374;DHT22;58212;47.034;7.376;2023-02-28T01:35:03;0.00;99.90
56374;DHT22;58212;47.034;7.376;2023-02-28T01:37:55;0.20;99.90
56374;DHT22;58212;47.034;7.376;2023-02-28T01:40:24;0.10;99.90
56374;DHT22;58212;47.034;7.376;2023-02-28T01:42:51;0.30;99.90
56374;DHT22;58212;47.034;7.376;2023-02-28T01:45:22;0.40;99.90
56374;DHT22;58212;47.034;7.376;2023-02-28T01:47:57;-0.10;99.90
56374;DHT22;58212;47.034;7.376;2023-02-28T01:50:27;-0.20;99.90
56374;DHT22;58212;47.034;7.376;2023-02-28T01:52:57;-0.30;99.90
56374;DHT22;58212;47.034;7.376;2023-02-28T01:55:27;0.00;99.90
56374;DHT22;58212;47.034;7.376;2023-02-28T01:58:00;0.00;99.90
56374;DHT22;58212;47.034;7.376;2023-02-28T02:00:30;-0.10;99.90
56374;DHT22;58212;47.034;7.376;2023-02-28T02:02:59;0.10;99.90
56374;DHT22;58212;47.034;7.376;2023-02-28T02:05:29;-0.10;99.90
56374;DHT22;58212;47.034;7.376;2023-02-28T02:08:01;0.30;99.90
56374;DHT22;58212;47.034;7.376;2023-02-28T02:10:33;0.10;99.90
56374;DHT22;58212;47.034;7.376;2023-02-28T02:13:19;-0.20;99.90
56374;DHT22;58212;47.034;7.376;2023-02-28T02:16:00;-0.30;99.90
56374;DHT22;58212;47.034;7.376;2023-02-28T02:18:33;0.20;99.90
56374;DHT22;58212;47.034;7.376;2023-02-28T02:21:47;0.50;99.90
56374;DHT22;58212;47.034;7.376;2023-02-28T02:24:47;-0.30;99.90
56374;DHT22;58212;47.034;7.376;2023-02-28T02:27:26;-0.10;99.90
56374;DHT22;58212;47.034;7.376;2023-02-28T02:33:20;0.00;99.90
56374;DHT22;58212;47.034;7.376;2023-02-28T02:35:54;-0.10;99.90
56374;DHT22;58212;47.034;7.376;2023-02-28T02:38:31;0.10;99.90
56374;DHT22;58212;47.034;7.376;2023-02-28T02:41:06;-0.20;99.90
56374;DHT22;58212;47.034;7.376;2023-02-28T02:43:42;-0.40;99.90
56374;DHT22;58212;47.034;7.376;2023-02-28T02:46:17;-0.60;99.90
56374;DHT22;58212;47.034;7.376;2023-02-28T02:48:47;-0.10;99.90
56374;DHT22;58212;47.034;7.376;2023-02-28T02:51:17;-0.10;99.90
56374;DHT22;58212;47.034;7.376;2023-02-28T02:53:51;0.20;99.90
56374;DHT22;58212;47.034;7.376;2023-02-28T02:56:24;0.10;99.90
56374;DHT22;58212;47.034;7.376;2023-02-28T02:59:20;0.30;99.90
56374;DHT22;58212;47.034;7.376;2023-02-28T03:01:50;0.40;99.90
56374;DHT22;58212;47.034;7.376;2023-02-28T03:04:23;0.30;99.90
56374;DHT22;58212;47.034;7.376;2023-02-28T03:06:53;0.00;99.90
56374;DHT22;58212;47.034;7.376;2023-02-28T03:09:21;0.00;99.90
56374;DHT22;58212;47.034;7.376;2023-02-28T03:11:49;-0.30;99.90
56374;DHT22;58212;47.034;7.376;2023-02-28T03:14:27;-0.30;99.90
56374;DHT22;58212;47.034;7.376;2023-02-28T03:17:16;0.00;99.90
56374;DHT22;58212;47.034;7.376;2023-02-28T03:19:54;-0.10;99.90
56374;DHT22;58212;47.034;7.376;2023-02-28T03:22:40;-0.30;99.90
56374;DHT22;58212;47.034;7.376;2023-02-28T03:25:24;-0.40;99.90
56374;DHT22;58212;47.034;7.376;2023-02-28T03:28:03;-0.30;99.90
56374;DHT22;58212;47.034;7.376;2023-02-28T03:30:36;-0.40;99.90
56374;DHT22;58212;47.034;7.376;2023-02-28T03:36:29;-0.20;99.90
56374;DHT22;58212;47.034;7.376;2023-02-28T03:39:00;-0.20;99.90
56374;DHT22;58212;47.034;7.376;2023-02-28T03:41:32;-0.10;99.90
56374;DHT22;58212;47.034;7.376;2023-02-28T03:44:05;0.00;99.90
56374;DHT22;58212;47.034;7.376;2023-02-28T03:46:36;-0.10;99.90
56374;DHT22;58212;47.034;7.376;2023-02-28T03:49:09;-0.10;99.90
56374;DHT22;58212;47.034;7.376;2023-02-28T03:51:39;0.00;99.90
56374;DHT22;58212;47.034;7.376;2023-02-28T03:54:18;0.00;99.90
56374;DHT22;58212;47.034;7.376;2023-02-28T03:56:50;-0.10;99.90
56374;DHT22;58212;47.034;7.376;2023-02-28T03:59:24;-0.10;99.90
56374;DHT22;58212;47.034;7.376;2023-02-28T04:01:53;0.00;99.90
56374;DHT22;58212;47.034;7.376;2023-02-28T04:04:21;-0.30;99.90
56374;DHT22;58212;47.034;7.376;2023-02-28T04:06:50;-0.50;99.90
56374;DHT22;58212;47.034;7.376;2023-02-28T04:09:19;-0.40;99.90
56374;DHT22;58212;47.034;7.376;2023-02-28T04:11:50;-0.20;99.90
56374;DHT22;58212;47.034;7.376;2023-02-28T04:14:18;-0.50;99.90
56374;DHT22;58212;47.034;7.376;2023-02-28T04:16:45;-0.10;99.90
56374;DHT22;58212;47.034;7.376;2023-02-28T04:19:13;-0.20;99.90
56374;DHT22;58212;47.034;7.376;2023-02-28T04:21:42;-0.30;99.90
56374;DHT22;58212;47.034;7.376;2023-02-28T04:24:11;-0.10;99.90
56374;DHT22;58212;47.034;7.376;2023-02-28T04:26:42;0.00;99.90
56374;DHT22;58212;47.034;7.376;2023-02-28T04:29:11;0.30;99.90
56374;DHT22;58212;47.034;7.376;2023-02-28T04:31:38;0.10;99.90
56374;DHT22;58212;47.034;7.376;2023-02-28T04:34:06;0.00;99.90
56374;DHT22;58212;47.034;7.376;2023-02-28T04:36:33;-0.20;99.90
56374;DHT22;58212;47.034;7.376;2023-02-28T04:39:00;-0.30;99.90
56374;DHT22;58212;47.034;7.376;2023-02-28T04:41:26;-0.40;99.90
56374;DHT22;58212;47.034;7.376;2023-02-28T04:43:55;-0.30;99.90
56374;DHT22;58212;47.034;7.376;2023-02-28T04:46:23;-0.10;99.90
56374;DHT22;58212;47.034;7.376;2023-02-28T04:48:51;0.10;99.90
56374;DHT22;58212;47.034;7.376;2023-02-28T04:51:19;0.00;99.90
56374;DHT22;58212;47.034;7.376;2023-02-28T04:53:47;-0.30;99.90
56374;DHT22;58212;47.034;7.376;2023-02-28T04:56:16;-0.30;99.90
56374;DHT22;58212;47.034;7.376;2023-02-28T04:58:46;-0.30;99.90
56374;DHT22;58212;47.034;7.376;2023-02-28T05:01:20;0.00;99.90
56374;DHT22;58212;47.034;7.376;2023-02-28T05:03:48;0.20;99.90
56374;DHT22;58212;47.034;7.376;2023-02-28T05:06:16;0.10;99.90
56374;DHT22;58212;47.034;7.376;2023-02-28T05:08:45;-0.20;99.90
56374;DHT22;58212;47.034;7.376;2023-02-28T05:11:16;-0.20;99.90
56374;DHT22;58212;47.034;7.376;2023-02-28T05:13:44;-0.40;99.90
56374;DHT22;58212;47.034;7.376;2023-02-28T05:16:11;0.00;99.90
56374;DHT22;58212;47.034;7.376;2023-02-28T05:18:42;0.00;99.90
56374;DHT22;58212;47.034;7.376;2023-02-28T05:21:24;0.00;99.90
56374;DHT22;58212;47.034;7.376;2023-02-28T05:23:53;-0.10;99.90
56374;DHT22;58212;47.034;7.376;2023-02-28T05:26:21;-0.10;99.90
56374;DHT22;58212;47.034;7.376;2023-02-28T05:28:52;-0.20;99.90
56374;DHT22;58212;47.034;7.376;2023-02-28T05:31:43;-0.20;99.90
56374;DHT22;58212;47.034;7.376;2023-02-28T05:34:14;-0.10;99.90
56374;DHT22;58212;47.034;7.376;2023-02-28T05:36:41;0.20;99.90
56374;DHT22;58212;47.034;7.376;2023-02-28T05:39:09;0.20;99.90
56374;DHT22;58212;47.034;7.376;2023-02-28T05:41:40;0.20;99.90
56374;DHT22;58212;47.034;7.376;2023-02-28T05:44:32;0.20;99.90
56374;DHT22;58212;47.034;7.376;2023-02-28T05:46:59;0.20;99.90
56374;DHT22;58212;47.034;7.376;2023-02-28T05:49:28;0.10;99.90
56374;DHT22;58212;47.034;7.376;2023-02-28T05:51:55;0.00;99.90
56374;DHT22;58212;47.034;7.376;2023-02-28T05:54:22;0.20;99.90
56374;DHT22;58212;47.034;7.376;2023-02-28T05:56:50;0.30;99.90
56374;DHT22;58212;47.034;7.376;2023-02-28T05:59:17;0.50;99.90
56374;DHT22;58212;47.034;7.376;2023-02-28T06:01:45;0.20;99.90
56374;DHT22;58212;47.034;7.376;2023-02-28T06:04:15;-0.20;99.90
56374;DHT22;58212;47.034;7.376;2023-02-28T06:06:46;0.00;99.90
56374;DHT22;58212;47.034;7.376;2023-02-28T06:09:13;0.10;99.90
56374;DHT22;58212;47.034;7.376;2023-02-28T06:11:41;-0.40;99.90
56374;DHT22;58212;47.034;7.376;2023-02-28T06:14:14;-0.20;99.90
56374;DHT22;58212;47.034;7.376;2023-02-28T06:16:41;-0.20;99.90
56374;DHT22;58212;47.034;7.376;2023-02-28T06:19:10;-0.10;99.90
56374;DHT22;58212;47.034;7.376;2023-02-28T06:22:03;-0.10;99.90
56374;DHT22;58212;47.034;7.376;2023-02-28T06:24:30;0.10;99.90
56374;DHT22;58212;47.034;7.376;2023-02-28T06:26:57;0.10;99.90
56374;DHT22;58212;47.034;7.376;2023-02-28T06:29:30;0.00;99.90
56374;DHT22;58212;47.034;7.376;2023-02-28T06:32:00;-0.30;99.90
56374;DHT22;58212;47.034;7.376;2023-02-28T06:34:26;-0.30;99.90
56374;DHT22;58212;47.034;7.376;2023-02-28T06:36:53;-0.10;99.90
56374;DHT22;58212;47.034;7.376;2023-02-28T06:39:21;-0.10;99.90
56374;DHT22;58212;47.034;7.376;2023-02-28T06:41:48;0.00;99.90
56374;DHT22;58212;47.034;7.376;2023-02-28T06:44:18;-0.10;99.90
56374;DHT22;58212;47.034;7.376;2023-02-28T06:46:45;-0.10;99.90
56374;DHT22;58212;47.034;7.376;2023-02-28T06:49:14;0.20;99.90
56374;DHT22;58212;47.034;7.376;2023-02-28T06:51:43;0.10;99.90
56374;DHT22;58212;47.034;7.376;2023-02-28T06:54:12;0.20;99.90
56374;DHT22;58212;47.034;7.376;2023-02-28T06:56:40;0.30;99.90
56374;DHT22;58212;47.034;7.376;2023-02-28T06:59:07;0.10;99.90
56374;DHT22;58212;47.034;7.376;2023-02-28T07:01:34;0.20;99.90
56374;DHT22;58212;47.034;7.376;2023-02-28T07:04:01;0.10;99.90
56374;DHT22;58212;47.034;7.376;2023-02-28T07:06:28;0.20;99.90
56374;DHT22;58212;47.034;7.376;2023-02-28T07:08:55;0.30;99.90
56374;DHT22;58212;47.034;7.376;2023-02-28T07:11:24;-0.20;99.90
56374;DHT22;58212;47.034;7.376;2023-02-28T07:13:54;0.10;99.90
56374;DHT22;58212;47.034;7.376;2023-02-28T07:16:22;0.10;99.90
56374;DHT22;58212;47.034;7.376;2023-02-28T07:18:49;0.10;99.90
56374;DHT22;58212;47.034;7.376;2023-02-28T07:21:18;-0.10;99.90
56374;DHT22;58212;47.034;7.376;2023-02-28T07:23:45;-0.10;99.90
56374;DHT22;58212;47.034;7.376;2023-02-28T07:26:15;0.00;99.90
56374;DHT22;58212;47.034;7.376;2023-02-28T07:28:43;0.20;99.90
56374;DHT22;58212;47.034;7.376;2023-02-28T07:31:13;0.10;99.90
56374;DHT22;58212;47.034;7.376;2023-02-28T07:33:40;0.10;99.90
56374;DHT22;58212;47.034;7.376;2023-02-28T07:36:09;0.10;99.90
56374;DHT22;58212;47.034;7.376;2023-02-28T07:38:41;0.40;99.90
56374;DHT22;58212;47.034;7.376;2023-02-28T07:41:09;0.40;99.90
56374;DHT22;58212;47.034;7.376;2023-02-28T07:43:36;0.60;99.90
56374;DHT22;58212;47.034;7.376;2023-02-28T07:46:04;0.50;99.90
56374;DHT22;58212;47.034;7.376;2023-02-28T07:48:33;0.30;99.90
56374;DHT22;58212;47.034;7.376;2023-02-28T07:51:01;0.00;99.90
56374;DHT22;58212;47.034;7.376;2023-02-28T07:53:28;0.40;99.90
56374;DHT22;58212;47.034;7.376;2023-02-28T07:55:56;0.30;99.90
56374;DHT22;58212;47.034;7.376;2023-02-28T07:58:23;0.30;99.90
56374;DHT22;58212;47.034;7.376;2023-02-28T08:00:51;0.50;99.90
56374;DHT22;58212;47.034;7.376;2023-02-28T08:03:18;0.90;99.90
56374;DHT22;58212;47.034;7.376;2023-02-28T08:05:49;0.80;99.90
56374;DHT22;58212;47.034;7.376;2023-02-28T08:08:18;0.60;99.90
56374;DHT22;58212;47.034;7.376;2023-02-28T08:10:44;0.70;99.90
56374;DHT22;58212;47.034;7.376;2023-02-28T08:13:11;0.50;99.90
56374;DHT22;58212;47.034;7.376;2023-02-28T08:15:40;0.40;99.90
56374;DHT22;58212;47.034;7.376;2023-02-28T08:18:07;0.50;99.90
56374;DHT22;58212;47.034;7.376;2023-02-28T08:20:34;0.70;99.90
56374;DHT22;58212;47.034;7.376;2023-02-28T08:23:02;0.70;99.90
56374;DHT22;58212;47.034;7.376;2023-02-28T08:25:29;0.50;99.90
56374;DHT22;58212;47.034;7.376;2023-02-28T08:28:00;0.30;99.90
56374;DHT22;58212;47.034;7.376;2023-02-28T08:30:27;0.30;99.90
56374;DHT22;58212;47.034;7.376;2023-02-28T08:32:54;0.10;99.90
56374;DHT22;58212;47.034;7.376;2023-02-28T08:35:21;0.10;99.90
56374;DHT22;58212;47.034;7.376;2023-02-28T08:37:48;0.40;99.90
56374;DHT22;58212;47.034;7.376;2023-02-28T08:40:17;0.40;99.90
56374;DHT22;58212;47.034;7.376;2023-02-28T08:42:44;0.50;99.90
56374;DHT22;58212;47.034;7.376;2023-02-28T08:45:12;0.70;99.90
56374;DHT22;58212;47.034;7.376;2023-02-28T08:47:39;0.70;99.90
56374;DHT22;58212;47.034;7.376;2023-02-28T08:50:08;0.60;99.90
56374;DHT22;58212;47.034;7.376;2023-02-28T08:52:35;0.70;99.90
56374;DHT22;58212;47.034;7.376;2023-02-28T08:55:02;0.60;99.90
56374;DHT22;58212;47.034;7.376;2023-02-28T08:57:31;0.70;99.90
56374;DHT22;58212;47.034;7.376;2023-02-28T09:00:02;0.80;99.90
56374;DHT22;58212;47.034;7.376;2023-02-28T09:02:30;0.50;99.90
56374;DHT22;58212;47.034;7.376;2023-02-28T09:04:58;0.70;99.90
56374;DHT22;58212;47.034;7.376;2023-02-28T09:07:51;0.50;99.90
56374;DHT22;58212;47.034;7.376;2023-02-28T09:10:18;0.50;99.90
56374;DHT22;58212;47.034;7.376;2023-02-28T09:12:47;0.80;99.90
56374;DHT22;58212;47.034;7.376;2023-02-28T09:15:14;0.90;99.90
56374;DHT22;58212;47.034;7.376;2023-02-28T09:17:40;0.80;99.90
56374;DHT22;58212;47.034;7.376;2023-02-28T09:20:09;0.80;99.90
56374;DHT22;58212;47.034;7.376;2023-02-28T09:22:36;0.70;99.90
56374;DHT22;58212;47.034;7.376;2023-02-28T09:25:04;0.90;99.90
56374;DHT22;58212;47.034;7.376;2023-02-28T09:27:35;1.20;99.90
56374;DHT22;58212;47.034;7.376;2023-02-28T09:30:06;0.90;99.90
56374;DHT22;58212;47.034;7.376;2023-02-28T09:32:33;1.00;99.90
56374;DHT22;58212;47.034;7.376;2023-02-28T09:35:00;1.20;99.90
56374;DHT22;58212;47.034;7.376;2023-02-28T09:37:26;1.50;99.90
56374;DHT22;58212;47.034;7.376;2023-02-28T09:39:54;1.60;99.90
56374;DHT22;58212;47.034;7.376;2023-02-28T09:42:27;1.90;99.90
56374;DHT22;58212;47.034;7.376;2023-02-28T09:44:58;1.80;99.90
56374;DHT22;58212;47.034;7.376;2023-02-28T09:47:32;1.90;99.90
56374;DHT22;58212;47.034;7.376;2023-02-28T09:50:06;1.80;99.90
56374;DHT22;58212;47.034;7.376;2023-02-28T09:52:38;1.90;99.90
56374;DHT22;58212;47.034;7.376;2023-02-28T09:55:19;1.40;99.90
56374;DHT22;58212;47.034;7.376;2023-02-28T09:57:48;1.50;99.90
56374;DHT22;58212;47.034;7.376;2023-02-28T10:00:19;1.70;99.90
56374;DHT22;58212;47.034;7.376;2023-02-28T10:03:04;1.40;99.90
56374;DHT22;58212;47.034;7.376;2023-02-28T10:05:37;1.80;99.90
56374;DHT22;58212;47.034;7.376;2023-02-28T10:08:11;1.60;99.90
56374;DHT22;58212;47.034;7.376;2023-02-28T10:10:41;1.50;99.90
56374;DHT22;58212;47.034;7.376;2023-02-28T10:13:17;1.50;99.90
56374;DHT22;58212;47.034;7.376;2023-02-28T10:15:50;1.80;99.90
56374;DHT22;58212;47.034;7.376;2023-02-28T10:18:24;1.60;99.90
56374;DHT22;58212;47.034;7.376;2023-02-28T10:21:21;1.90;99.90
56374;DHT22;58212;47.034;7.376;2023-02-28T10:23:55;1.50;99.90
56374;DHT22;58212;47.034;7.376;2023-02-28T10:26:26;1.20;99.90
56374;DHT22;58212;47.034;7.376;2023-02-28T10:28:54;1.30;99.90
56374;DHT22;58212;47.034;7.376;2023-02-28T10:31:22;1.50;99.90
56374;DHT22;58212;47.034;7.376;2023-02-28T10:33:51;1.60;99.90
56374;DHT22;58212;47.034;7.376;2023-02-28T10:36:20;1.80;99.90
56374;DHT22;58212;47.034;7.376;2023-02-28T10:38:48;1.80;99.90
56374;DHT22;58212;47.034;7.376;2023-02-28T10:41:28;2.10;99.90
56374;DHT22;58212;47.034;7.376;2023-02-28T10:44:13;2.40;99.90
56374;DHT22;58212;47.034;7.376;2023-02-28T10:46:41;1.60;99.90
56374;DHT22;58212;47.034;7.376;2023-02-28T10:49:17;1.70;99.90
56374;DHT22;58212;47.034;7.376;2023-02-28T10:51:45;1.80;99.90
56374;DHT22;58212;47.034;7.376;2023-02-28T10:54:19;1.80;99.90
56374;DHT22;58212;47.034;7.376;2023-02-28T10:57:06;2.10;99.90
56374;DHT22;58212;47.034;7.376;2023-02-28T10:59:36;2.60;99.90
56374;DHT22;58212;47.034;7.376;2023-02-28T11:02:31;2.40;99.90
56374;DHT22;58212;47.034;7.376;2023-02-28T11:04:59;2.40;99.90
56374;DHT22;58212;47.034;7.376;2023-02-28T11:07:27;1.80;99.90
56374;DHT22;58212;47.034;7.376;2023-02-28T11:09:56;1.90;99.90
56374;DHT22;58212;47.034;7.376;2023-02-28T11:12:26;1.80;99.90
56374;DHT22;58212;47.034;7.376;2023-02-28T11:14:56;2.10;99.90
56374;DHT22;58212;47.034;7.376;2023-02-28T11:17:26;2.20;99.90
56374;DHT22;58212;47.034;7.376;2023-02-28T11:19:56;1.80;99.90
56374;DHT22;58212;47.034;7.376;2023-02-28T11:22:28;2.00;99.90
56374;DHT22;58212;47.034;7.376;2023-02-28T11:24:58;2.00;99.90
56374;DHT22;58212;47.034;7.376;2023-02-28T11:27:42;2.00;99.90
56374;DHT22;58212;47.034;7.376;2023-02-28T11:30:25;2.30;99.90
56374;DHT22;58212;47.034;7.376;2023-02-28T11:32:55;2.00;99.90
56374;DHT22;58212;47.034;7.376;2023-02-28T11:35:26;2.30;99.90
56374;DHT22;58212;47.034;7.376;2023-02-28T11:37:57;2.40;99.90
56374;DHT22;58212;47.034;7.376;2023-02-28T11:40:31;2.20;99.90
56374;DHT22;58212;47.034;7.376;2023-02-28T11:43:16;1.80;99.90
56374;DHT22;58212;47.034;7.376;2023-02-28T11:46:06;1.90;99.90
56374;DHT22;58212;47.034;7.376;2023-02-28T11:48:43;2.20;99.90
56374;DHT22;58212;47.034;7.376;2023-02-28T11:51:15;1.80;99.90
56374;DHT22;58212;47.034;7.376;2023-02-28T11:54:26;1.70;99.90
56374;DHT22;58212;47.034;7.376;2023-02-28T11:56:59;1.70;99.90
56374;DHT22;58212;47.034;7.376;2023-02-28T11:59:48;2.10;99.90
56374;DHT22;58212;47.034;7.376;2023-02-28T12:02:28;2.20;99.90
56374;DHT22;58212;47.034;7.376;2023-02-28T12:05:11;2.10;99.90
56374;DHT22;58212;47.034;7.376;2023-02-28T12:07:49;2.10;99.90
56374;DHT22;58212;47.034;7.376;2023-02-28T12:10:23;2.30;99.90
56374;DHT22;58212;47.034;7.376;2023-02-28T12:13:10;2.00;99.90
56374;DHT22;58212;47.034;7.376;2023-02-28T12:15:55;2.00;99.90
56374;DHT22;58212;47.034;7.376;2023-02-28T12:18:40;2.10;99.90
56374;DHT22;58212;47.034;7.376;2023-02-28T12:21:17;2.00;99.90
56374;DHT22;58212;47.034;7.376;2023-02-28T12:24:00;2.10;99.90
56374;DHT22;58212;47.034;7.376;2023-02-28T12:26:38;2.10;99.90
56374;DHT22;58212;47.034;7.376;2023-02-28T12:29:14;2.30;99.90
56374;DHT22;58212;47.034;7.376;2023-02-28T12:31:47;2.30;99.90
56374;DHT22;58212;47.034;7.376;2023-02-28T12:34:46;2.50;99.90
56374;DHT22;58212;47.034;7.376;2023-02-28T12:37:19;2.50;99.90
56374;DHT22;58212;47.034;7.376;2023-02-28T12:39:51;2.10;99.90
56374;DHT22;58212;47.034;7.376;2023-02-28T12:42:27;1.60;99.90
56374;DHT22;58212;47.034;7.376;2023-02-28T12:45:01;2.30;99.90
56374;DHT22;58212;47.034;7.376;2023-02-28T12:47:29;2.40;99.90
56374;DHT22;58212;47.034;7.376;2023-02-28T12:49:59;2.20;99.90
56374;DHT22;58212;47.034;7.376;2023-02-28T12:52:35;2.40;99.90
56374;DHT22;58212;47.034;7.376;2023-02-28T12:55:35;2.40;99.90
56374;DHT22;58212;47.034;7.376;2023-02-28T12:58:12;2.60;99.90
56374;DHT22;58212;47.034;7.376;2023-02-28T13:00:53;2.20;99.90
56374;DHT22;58212;47.034;7.376;2023-02-28T13:03:36;2.50;99.90
56374;DHT22;58212;47.034;7.376;2023-02-28T13:09:09;2.60;99.90
56374;DHT22;58212;47.034;7.376;2023-02-28T13:11:40;2.10;99.90
56374;DHT22;58212;47.034;7.376;2023-02-28T13:14:24;2.00;99.90
56374;DHT22;58212;47.034;7.376;2023-02-28T13:16:57;2.20;99.90
56374;DHT22;58212;47.034;7.376;2023-02-28T13:19:28;2.30;99.90
56374;DHT22;58212;47.034;7.376;2023-02-28T13:21:57;2.00;99.90
56374;DHT22;58212;47.034;7.376;2023-02-28T13:24:40;2.40;99.90
56374;DHT22;58212;47.034;7.376;2023-02-28T13:27:33;2.30;99.90
56374;DHT22;58212;47.034;7.376;2023-02-28T13:32:44;2.30;99.90
56374;DHT22;58212;47.034;7.376;2023-02-28T13:38:23;2.30;99.90
56374;DHT22;58212;47.034;7.376;2023-02-28T13:40:50;2.40;99.90
56374;DHT22;58212;47.034;7.376;2023-02-28T13:43:18;2.60;99.90
56374;DHT22;58212;47.034;7.376;2023-02-28T13:46:10;2.70;99.90
56374;DHT22;58212;47.034;7.376;2023-02-28T13:48:38;2.40;99.90
56374;DHT22;58212;47.034;7.376;2023-02-28T13:51:38;2.50;99.90
56374;DHT22;58212;47.034;7.376;2023-02-28T13:54:19;2.50;99.90
56374;DHT22;58212;47.034;7.376;2023-02-28T13:57:00;2.40;99.90
56374;DHT22;58212;47.034;7.376;2023-02-28T13:59:34;2.50;99.90
56374;DHT22;58212;47.034;7.376;2023-02-28T14:02:27;2.30;99.90
56374;DHT22;58212;47.034;7.376;2023-02-28T14:05:01;2.30;99.90
56374;DHT22;58212;47.034;7.376;2023-02-28T14:07:31;2.20;99.90
56374;DHT22;58212;47.034;7.376;2023-02-28T14:10:01;2.40;99.90
56374;DHT22;58212;47.034;7.376;2023-02-28T14:12:52;2.50;99.90
56374;DHT22;58212;47.034;7.376;2023-02-28T14:15:44;2.20;99.90
56374;DHT22;58212;47.034;7.376;2023-02-28T14:18:21;2.30;99.90
56374;DHT22;58212;47.034;7.376;2023-02-28T14:20:51;2.10;99.90
56374;DHT22;58212;47.034;7.376;2023-02-28T14:23:50;2.40;99.90
56374;DHT22;58212;47.034;7.376;2023-02-28T14:26:43;2.70;99.90
56374;DHT22;58212;47.034;7.376;2023-02-28T14:29:26;2.20;99.90
56374;DHT22;58212;47.034;7.376;2023-02-28T14:32:01;2.50;99.90
56374;DHT22;58212;47.034;7.376;2023-02-28T14:34:37;2.50;99.90
56374;DHT22;58212;47.034;7.376;2023-02-28T14:37:13;2.20;99.90
56374;DHT22;58212;47.034;7.376;2023-02-28T14:39:43;1.90;99.90
56374;DHT22;58212;47.034;7.376;2023-02-28T14:42:30;1.60;99.90
56374;DHT22;58212;47.034;7.376;2023-02-28T14:44:58;1.90;99.90
56374;DHT22;58212;47.034;7.376;2023-02-28T14:47:51;1.90;99.90
56374;DHT22;58212;47.034;7.376;2023-02-28T14:50:22;1.90;99.90
56374;DHT22;58212;47.034;7.376;2023-02-28T14:53:18;2.20;99.90
56374;DHT22;58212;47.034;7.376;2023-02-28T14:55:48;2.30;99.90
56374;DHT22;58212;47.034;7.376;2023-02-28T14:58:23;1.90;99.90
56374;DHT22;58212;47.034;7.376;2023-02-28T15:00:51;1.90;99.90
56374;DHT22;58212;47.034;7.376;2023-02-28T15:03:21;1.80;99.90
56374;DHT22;58212;47.034;7.376;2023-02-28T15:05:54;1.80;99.90
56374;DHT22;58212;47.034;7.376;2023-02-28T15:08:22;1.80;99.90
56374;DHT22;58212;47.034;7.376;2023-02-28T15:10:56;1.80;99.90
56374;DHT22;58212;47.034;7.376;2023-02-28T15:13:35;1.80;99.90
56374;DHT22;58212;47.034;7.376;2023-02-28T15:16:04;1.40;99.90
56374;DHT22;58212;47.034;7.376;2023-02-28T15:18:41;1.40;99.90
56374;DHT22;58212;47.034;7.376;2023-02-28T15:21:13;1.50;99.90
56374;DHT22;58212;47.034;7.376;2023-02-28T15:23:45;1.50;99.90
56374;DHT22;58212;47.034;7.376;2023-02-28T15:26:14;1.30;99.90
56374;DHT22;58212;47.034;7.376;2023-02-28T15:28:43;1.30;99.90
56374;DHT22;58212;47.034;7.376;2023-02-28T15:31:20;1.10;99.90
56374;DHT22;58212;47.034;7.376;2023-02-28T15:33:56;1.00;99.90
56374;DHT22;58212;47.034;7.376;2023-02-28T15:36:29;1.00;99.90
56374;DHT22;58212;47.034;7.376;2023-02-28T15:38:59;1.00;99.90
56374;DHT22;58212;47.034;7.376;2023-02-28T15:41:28;1.30;99.90
56374;DHT22;58212;47.034;7.376;2023-02-28T15:44:16;1.50;99.90
56374;DHT22;58212;47.034;7.376;2023-02-28T15:46:57;1.10;99.90
56374;DHT22;58212;47.034;7.376;2023-02-28T15:49:27;1.40;99.90
56374;DHT22;58212;47.034;7.376;2023-02-28T15:52:00;1.30;99.90
56374;DHT22;58212;47.034;7.376;2023-02-28T15:54:29;1.00;99.90
56374;DHT22;58212;47.034;7.376;2023-02-28T15:57:00;0.90;99.90
56374;DHT22;58212;47.034;7.376;2023-02-28T15:59:29;1.00;99.90
56374;DHT22;58212;47.034;7.376;2023-02-28T16:02:18;0.90;99.90
56374;DHT22;58212;47.034;7.376;2023-02-28T16:04:58;1.10;99.90
56374;DHT22;58212;47.034;7.376;2023-02-28T16:07:29;1.20;99.90
56374;DHT22;58212;47.034;7.376;2023-02-28T16:09:56;1.00;99.90
56374;DHT22;58212;47.034;7.376;2023-02-28T16:12:26;1.00;99.90
56374;DHT22;58212;47.034;7.376;2023-02-28T16:14:56;0.70;99.90
56374;DHT22;58212;47.034;7.376;2023-02-28T16:17:26;0.60;99.90
56374;DHT22;58212;47.034;7.376;2023-02-28T16:19:55;0.80;99.90
56374;DHT22;58212;47.034;7.376;2023-02-28T16:22:25;0.90;99.90
56374;DHT22;58212;47.034;7.376;2023-02-28T16:24:54;0.80;99.90
56374;DHT22;58212;47.034;7.376;2023-02-28T16:27:30;0.80;99.90
56374;DHT22;58212;47.034;7.376;2023-02-28T16:30:00;0.70;99.90
56374;DHT22;58212;47.034;7.376;2023-02-28T16:32:27;0.60;99.90